Time;durP1;ratioP1;P1;durP2;ratioP2;P2;SDS_P1;SDS_P2;PMS_P1;PMS_P2;Temp;Humidity;BMP_temperature;BMP_pressure;BME280_temperature;BME280_humidity;BME280_pressure;Samples;Min_cycle;Max_cycle;Signal;HPM_P1;HPM_P2
2023/08/18 00:00:30;;;;;;;12.82;8.85;;;23.30;99.90;;;;;;5135014;27;20038;-65
2023/08/18 00:02:55;;;;;;;11.13;9.35;;;23.30;99.90;;;;;;5134662;27;20035;-66
2023/08/18 00:05:21;;;;;;;12.18;9.50;;;23.30;99.90;;;;;;5134953;27;20080;-65
2023/08/18 00:07:47;;;;;;;9.05;8.13;;;23.30;99.90;;;;;;5135025;27;20027;-64
2023/08/18 00:10:13;;;;;;;11.98;8.70;;;23.30;99.90;;;;;;5134937;27;20458;-65
2023/08/18 00:12:38;;;;;;;9.73;8.73;;;23.30;99.90;;;;;;5134883;27;20479;-64
2023/08/18 00:15:04;;;;;;;14.65;9.10;;;23.30;99.90;;;;;;5134471;27;20176;-65
2023/08/18 00:17:30;;;;;;;9.40;8.40;;;23.30;99.90;;;;;;5134807;27;20114;-66
2023/08/18 00:19:56;;;;;;;12.82;9.15;;;23.30;99.90;;;;;;5134429;27;20047;-64
2023/08/18 00:22:22;;;;;;;12.50;9.60;;;23.20;99.90;;;;;;5134617;27;20080;-64
2023/08/18 00:24:47;;;;;;;10.48;9.27;;;23.20;99.90;;;;;;5134409;27;20106;-65
2023/08/18 00:27:13;;;;;;;12.32;9.80;;;23.20;99.90;;;;;;5133941;27;20065;-65
2023/08/18 00:29:39;;;;;;;10.57;9.52;;;23.20;99.90;;;;;;5134483;27;20031;-65
2023/08/18 00:32:05;;;;;;;13.45;9.80;;;23.10;99.90;;;;;;5134052;27;20034;-65
2023/08/18 00:34:30;;;;;;;11.13;9.82;;;23.10;99.90;;;;;;5134398;27;20023;-65
2023/08/18 00:36:56;;;;;;;10.63;9.45;;;23.10;99.90;;;;;;5133992;27;20045;-65
2023/08/18 00:39:22;;;;;;;11.07;9.95;;;23.10;99.90;;;;;;5133965;27;20344;-65
2023/08/18 00:41:48;;;;;;;12.82;9.52;;;23.10;99.90;;;;;;5134191;27;20513;-65
2023/08/18 00:44:14;;;;;;;12.00;9.05;;;23.00;99.90;;;;;;5133589;27;20057;-65
2023/08/18 00:46:40;;;;;;;11.95;9.57;;;23.00;99.90;;;;;;5134211;27;20098;-65
2023/08/18 00:49:08;;;;;;;10.30;9.25;;;23.00;99.90;;;;;;5132684;27;20127;-65
2023/08/18 00:51:35;;;;;;;14.32;9.68;;;23.00;99.90;;;;;;5134101;27;20021;-65
2023/08/18 00:54:02;;;;;;;13.05;9.63;;;23.00;99.90;;;;;;5133728;27;20027;-65
2023/08/18 00:56:28;;;;;;;12.52;9.82;;;23.00;99.90;;;;;;5134056;27;20114;-65
2023/08/18 00:58:54;;;;;;;12.02;10.20;;;22.90;99.90;;;;;;5133894;27;20051;-65
2023/08/18 01:01:20;;;;;;;11.25;10.02;;;23.00;99.90;;;;;;5133742;27;20379;-65
2023/08/18 01:03:46;;;;;;;13.02;10.55;;;23.00;99.90;;;;;;5133871;27;20031;-65
2023/08/18 01:06:12;;;;;;;16.50;9.88;;;22.90;99.90;;;;;;5133586;27;20224;-65
2023/08/18 01:08:37;;;;;;;10.60;9.50;;;23.00;99.90;;;;;;5133931;27;20507;-65
2023/08/18 01:11:03;;;;;;;11.57;10.27;;;22.90;99.90;;;;;;5133805;27;20075;-65
2023/08/18 01:13:50;;;;;;;11.50;10.30;;;22.90;99.90;;;;;;5133746;27;20027;-65
2023/08/18 01:16:23;;;;;;;11.80;10.65;;;22.80;99.90;;;;;;5133174;27;20469;-65
2023/08/18 01:18:50;;;;;;;14.10;10.45;;;22.80;99.90;;;;;;5133881;27;20035;-65
2023/08/18 01:21:17;;;;;;;12.75;10.05;;;22.80;99.90;;;;;;5133372;27;20020;-65
2023/08/18 01:23:43;;;;;;;12.43;10.68;;;22.80;99.90;;;;;;5133771;28;20080;-65
2023/08/18 01:26:09;;;;;;;11.75;10.48;;;22.70;99.90;;;;;;5126162;28;20023;-66
2023/08/18 01:28:35;;;;;;;10.93;9.50;;;22.70;99.90;;;;;;5112890;28;20512;-65
2023/08/18 01:31:06;;;;;;;11.65;9.52;;;22.70;99.90;;;;;;5112955;28;20027;-66
2023/08/18 01:33:40;;;;;;;11.32;9.68;;;22.70;99.90;;;;;;5113497;28;20028;-66
2023/08/18 01:36:18;;;;;;;10.52;9.43;;;22.70;99.90;;;;;;5112802;28;20031;-66
2023/08/18 01:38:46;;;;;;;10.70;9.55;;;22.70;99.90;;;;;;5113177;28;20120;-66
2023/08/18 01:41:14;;;;;;;10.30;8.82;;;22.70;99.90;;;;;;5112685;28;20043;-66
2023/08/18 01:43:40;;;;;;;10.32;9.20;;;22.70;99.90;;;;;;5113009;28;20032;-66
2023/08/18 01:46:06;;;;;;;13.70;8.63;;;22.60;99.90;;;;;;5112684;28;20482;-66
2023/08/18 01:48:31;;;;;;;10.45;8.18;;;22.60;99.90;;;;;;5112565;28;20023;-66
2023/08/18 01:50:57;;;;;;;11.68;8.18;;;22.50;99.90;;;;;;5112834;28;20138;-66
2023/08/18 01:53:23;;;;;;;9.85;8.00;;;22.50;99.90;;;;;;5112971;28;20050;-65
2023/08/18 01:55:48;;;;;;;9.20;8.00;;;22.50;99.90;;;;;;5112987;28;20383;-65
2023/08/18 01:58:14;;;;;;;8.80;7.30;;;22.40;99.90;;;;;;5112193;28;20034;-66
2023/08/18 02:00:39;;;;;;;9.45;8.15;;;22.40;99.90;;;;;;5115731;28;20098;-66
2023/08/18 02:03:05;;;;;;;9.48;8.05;;;22.40;99.90;;;;;;5116447;28;20031;-65
2023/08/18 02:05:31;;;;;;;9.35;8.30;;;22.30;99.90;;;;;;5116925;28;20023;-65
2023/08/18 02:07:57;;;;;;;8.88;7.93;;;22.30;99.90;;;;;;5116828;28;20028;-66
2023/08/18 02:10:23;;;;;;;10.68;7.82;;;22.30;99.90;;;;;;5116427;28;20024;-64
2023/08/18 02:12:49;;;;;;;9.63;7.95;;;22.30;99.90;;;;;;5116640;28;20050;-64
2023/08/18 02:15:14;;;;;;;9.20;8.30;;;22.20;99.90;;;;;;5116249;28;20448;-64
2023/08/18 02:17:40;;;;;;;9.43;8.05;;;22.20;99.90;;;;;;5116601;28;20027;-64
2023/08/18 02:20:08;;;;;;;9.70;7.45;;;22.20;99.90;;;;;;5116137;28;20024;-64
2023/08/18 02:22:34;;;;;;;9.98;8.35;;;22.20;99.90;;;;;;5116324;28;20124;-64
2023/08/18 02:25:00;;;;;;;11.13;8.52;;;22.20;99.90;;;;;;5116035;28;20437;-64
2023/08/18 02:27:25;;;;;;;9.35;8.00;;;22.20;99.90;;;;;;5116520;28;20513;-64
2023/08/18 02:29:52;;;;;;;9.43;7.85;;;22.10;99.90;;;;;;5116306;28;20030;-64
2023/08/18 02:32:18;;;;;;;9.75;7.90;;;22.10;99.90;;;;;;5115646;28;20520;-64
2023/08/18 02:34:45;;;;;;;9.38;8.48;;;22.10;99.90;;;;;;5134582;27;20057;-64
2023/08/18 02:37:11;;;;;;;8.18;7.32;;;22.10;99.90;;;;;;5117977;27;20058;-65
2023/08/18 02:39:37;;;;;;;8.85;7.95;;;22.10;99.90;;;;;;5136635;27;20519;-64
2023/08/18 02:42:03;;;;;;;9.50;8.23;;;22.10;99.90;;;;;;5135911;27;20056;-64
2023/08/18 02:44:29;;;;;;;11.50;8.05;;;22.10;99.90;;;;;;5136680;27;20023;-64
2023/08/18 02:46:54;;;;;;;9.75;8.75;;;22.10;99.90;;;;;;5136128;27;20019;-64
2023/08/18 02:49:20;;;;;;;9.45;8.27;;;22.00;99.90;;;;;;5135713;27;20059;-64
2023/08/18 02:51:45;;;;;;;10.35;8.02;;;22.00;99.90;;;;;;5136501;27;20062;-64
2023/08/18 02:54:11;;;;;;;12.27;8.88;;;22.00;99.90;;;;;;5135766;27;20084;-64
2023/08/18 02:56:37;;;;;;;9.00;8.10;;;22.00;99.90;;;;;;5136369;27;20019;-64
2023/08/18 02:59:02;;;;;;;9.60;8.32;;;22.00;99.90;;;;;;5135903;27;20030;-64
2023/08/18 03:01:28;;;;;;;11.13;7.90;;;22.00;99.90;;;;;;5136289;27;20027;-64
2023/08/18 03:03:54;;;;;;;9.18;7.38;;;22.00;99.90;;;;;;5136166;27;20028;-64
2023/08/18 03:06:19;;;;;;;8.80;7.88;;;22.00;99.90;;;;;;5135913;27;20482;-64
2023/08/18 03:08:45;;;;;;;12.52;8.52;;;22.00;99.90;;;;;;5136179;27;20102;-64
2023/08/18 03:11:11;;;;;;;9.43;8.35;;;21.90;99.90;;;;;;5134681;27;20027;-65
2023/08/18 03:13:36;;;;;;;15.68;8.55;;;21.90;99.90;;;;;;5136146;27;20023;-64
2023/08/18 03:16:04;;;;;;;10.43;8.13;;;21.90;99.90;;;;;;5135710;27;20441;-66
2023/08/18 03:18:30;;;;;;;9.48;8.38;;;21.90;99.90;;;;;;5135973;27;20027;-64
2023/08/18 03:21:00;;;;;;;9.30;8.10;;;21.90;99.90;;;;;;5135869;27;20072;-64
2023/08/18 03:23:26;;;;;;;12.07;8.20;;;21.90;99.90;;;;;;5135339;27;20034;-64
2023/08/18 03:25:57;;;;;;;15.05;9.25;;;21.90;99.90;;;;;;5135858;27;20031;-64
2023/08/18 03:28:23;;;;;;;9.32;8.27;;;21.90;99.90;;;;;;5135412;27;20019;-65
2023/08/18 03:30:48;;;;;;;12.27;9.05;;;21.80;99.90;;;;;;5135443;27;20107;-64
2023/08/18 03:33:14;;;;;;;9.98;8.98;;;21.80;99.90;;;;;;5135003;27;20023;-65
2023/08/18 03:35:39;;;;;;;10.63;8.93;;;21.80;99.90;;;;;;5130149;27;20455;-64
2023/08/18 03:38:05;;;;;;;12.05;8.77;;;21.80;99.90;;;;;;5114708;28;20028;-65
2023/08/18 03:40:32;;;;;;;11.00;9.85;;;21.80;99.90;;;;;;5114672;28;20190;-64
2023/08/18 03:42:57;;;;;;;12.27;8.73;;;21.70;99.90;;;;;;5114897;28;20168;-64
2023/08/18 03:45:23;;;;;;;13.18;9.25;;;21.70;99.90;;;;;;5114436;28;20216;-64
2023/08/18 03:47:50;;;;;;;11.05;9.65;;;21.70;99.90;;;;;;5114716;28;20020;-64
2023/08/18 03:50:16;;;;;;;12.35;8.93;;;21.70;99.90;;;;;;5114314;28;20180;-64
2023/08/18 03:52:42;;;;;;;10.40;9.40;;;21.70;99.90;;;;;;5114654;28;20032;-67
2023/08/18 03:55:09;;;;;;;10.32;9.23;;;21.60;99.90;;;;;;5114039;28;20015;-64
2023/08/18 03:57:35;;;;;;;10.32;9.25;;;21.60;99.90;;;;;;5114516;28;20023;-65
2023/08/18 04:00:01;;;;;;;9.95;8.85;;;21.60;99.90;;;;;;5114860;28;20081;-64
2023/08/18 04:02:27;;;;;;;12.50;8.93;;;21.60;99.90;;;;;;5113983;28;20036;-64
2023/08/18 04:04:54;;;;;;;13.30;9.60;;;21.60;99.90;;;;;;5114622;28;20031;-65
2023/08/18 04:07:20;;;;;;;14.05;10.27;;;21.60;99.90;;;;;;5114025;28;20024;-66
2023/08/18 04:09:45;;;;;;;10.27;9.20;;;21.60;99.90;;;;;;5114541;28;20337;-65
2023/08/18 04:12:12;;;;;;;9.95;8.85;;;21.60;99.90;;;;;;5113933;28;20364;-66
2023/08/18 04:14:38;;;;;;;11.05;9.35;;;21.60;99.90;;;;;;5115015;27;20107;-66
2023/08/18 04:17:03;;;;;;;17.23;9.90;;;21.60;99.90;;;;;;5135123;27;20515;-66
2023/08/18 04:19:29;;;;;;;12.65;8.98;;;21.70;99.90;;;;;;5134119;27;20048;-66
2023/08/18 04:21:54;;;;;;;10.68;9.38;;;21.70;99.90;;;;;;5134474;27;20080;-65
2023/08/18 04:24:21;;;;;;;16.48;9.93;;;21.70;99.90;;;;;;5133978;27;20035;-65
2023/08/18 04:26:47;;;;;;;10.40;9.25;;;21.70;99.90;;;;;;5134545;27;20027;-65
2023/08/18 04:29:12;;;;;;;11.13;9.68;;;21.70;99.90;;;;;;5134195;27;20030;-65
2023/08/18 04:31:38;;;;;;;11.88;9.55;;;21.70;99.90;;;;;;5134202;27;20035;-65
2023/08/18 04:34:04;;;;;;;14.50;9.65;;;21.70;99.90;;;;;;5134390;27;20031;-65
2023/08/18 04:36:29;;;;;;;11.05;9.30;;;21.70;99.90;;;;;;5133581;27;20046;-66
2023/08/18 04:38:56;;;;;;;11.00;9.32;;;21.70;99.90;;;;;;5134207;27;20035;-66
2023/08/18 04:41:21;;;;;;;12.70;9.05;;;21.80;99.90;;;;;;5133909;27;20027;-66
2023/08/18 04:43:50;;;;;;;10.15;9.05;;;21.80;99.90;;;;;;5134186;27;20030;-64
2023/08/18 04:46:16;;;;;;;11.23;9.48;;;21.80;99.90;;;;;;5133873;27;20357;-66
2023/08/18 04:48:41;;;;;;;16.85;10.93;;;21.90;99.90;;;;;;5133988;27;20026;-66
2023/08/18 04:51:07;;;;;;;14.73;10.75;;;21.90;99.90;;;;;;5133408;27;20016;-66
2023/08/18 04:53:32;;;;;;;14.40;10.20;;;22.00;99.90;;;;;;5132400;27;20027;-67
2023/08/18 04:56:01;;;;;;;13.07;9.90;;;22.00;99.90;;;;;;5133690;27;20537;-66
2023/08/18 04:58:27;;;;;;;12.43;10.07;;;22.00;99.90;;;;;;5115321;27;20433;-65
2023/08/18 05:00:53;;;;;;;17.45;9.93;;;22.00;99.90;;;;;;5115575;27;20024;-63
2023/08/18 05:03:19;;;;;;;12.45;9.98;;;22.00;99.90;;;;;;5133513;27;20051;-64
2023/08/18 05:05:59;;;;;;;13.43;10.15;;;22.00;99.90;;;;;;5133380;27;20046;-64
2023/08/18 05:08:26;;;;;;;15.60;11.20;;;22.10;99.90;;;;;;5133352;27;20027;-64
2023/08/18 05:10:52;;;;;;;16.23;10.57;;;22.10;99.90;;;;;;5115654;27;20430;-63
2023/08/18 05:13:18;;;;;;;13.23;11.43;;;22.10;99.90;;;;;;5133767;27;20099;-65
2023/08/18 05:15:43;;;;;;;12.43;10.75;;;22.20;99.90;;;;;;5133566;27;20031;-66
2023/08/18 05:18:09;;;;;;;11.48;10.27;;;22.20;99.90;;;;;;5133840;27;20051;-66
2023/08/18 05:20:34;;;;;;;12.45;11.02;;;22.30;99.90;;;;;;5132857;27;20464;-65
2023/08/18 05:23:00;;;;;;;12.63;10.25;;;22.30;99.90;;;;;;5133649;27;20027;-65
2023/08/18 05:25:26;;;;;;;13.23;11.07;;;22.30;99.90;;;;;;5133645;28;20027;-65
2023/08/18 05:27:51;;;;;;;13.32;11.32;;;22.30;99.90;;;;;;5133717;28;20101;-66
2023/08/18 05:30:17;;;;;;;15.73;10.82;;;22.40;99.90;;;;;;5133324;28;20051;-65
2023/08/18 05:32:43;;;;;;;14.20;11.55;;;22.40;99.90;;;;;;5133733;28;20447;-66
2023/08/18 05:35:11;;;;;;;13.45;11.27;;;22.50;99.90;;;;;;5123565;27;20443;-65
2023/08/18 05:37:36;;;;;;;12.80;10.07;;;22.50;99.90;;;;;;5117010;28;20031;-65
2023/08/18 05:40:02;;;;;;;15.20;10.23;;;22.60;99.90;;;;;;5117017;28;20019;-65
2023/08/18 05:42:28;;;;;;;11.05;9.95;;;22.70;99.90;;;;;;5126488;27;20477;-66
2023/08/18 05:44:53;;;;;;;13.20;10.93;;;22.80;99.90;;;;;;5137114;27;20034;-64
2023/08/18 05:47:19;;;;;;;13.43;10.95;;;23.00;99.90;;;;;;5136912;27;20030;-65
2023/08/18 05:49:45;;;;;;;16.95;10.55;;;23.10;99.90;;;;;;5131578;27;20053;-65
2023/08/18 05:52:10;;;;;;;17.85;11.65;;;23.30;99.90;;;;;;5133360;27;20042;-65
2023/08/18 05:54:36;;;;;;;15.77;11.70;;;23.50;99.90;;;;;;5137285;27;20525;-65
2023/08/18 05:57:02;;;;;;;11.75;10.57;;;23.70;99.90;;;;;;5137472;27;20015;-65
2023/08/18 05:59:31;;;;;;;14.27;10.13;;;23.90;99.90;;;;;;5136987;27;20062;-65
2023/08/18 06:01:57;;;;;;;17.08;11.02;;;24.20;99.90;;;;;;5137038;27;20107;-65
2023/08/18 06:04:22;;;;;;;12.50;9.98;;;24.60;99.90;;;;;;5136472;27;20445;-66
2023/08/18 06:06:48;;;;;;;15.20;10.90;;;24.90;99.20;;;;;;5137142;27;20015;-65
2023/08/18 06:09:13;;;;;;;11.52;8.65;;;25.30;97.30;;;;;;5132647;27;20080;-66
2023/08/18 06:11:39;;;;;;;9.48;8.32;;;25.90;96.60;;;;;;5105255;28;20030;-65
2023/08/18 06:14:05;;;;;;;9.02;7.95;;;26.40;94.80;;;;;;5126282;27;20467;-66
2023/08/18 06:16:30;;;;;;;11.90;8.77;;;27.00;92.40;;;;;;5136538;27;20031;-66
2023/08/18 06:18:56;;;;;;;9.07;8.15;;;27.50;90.40;;;;;;5136929;27;20027;-65
2023/08/18 06:21:21;;;;;;;10.68;7.85;;;28.00;88.70;;;;;;5136278;27;20383;-66
2023/08/18 06:23:47;;;;;;;14.40;7.90;;;28.10;87.60;;;;;;5136815;27;20033;-65
2023/08/18 06:26:12;;;;;;;12.55;8.27;;;28.30;85.00;;;;;;5136299;27;20027;-65
2023/08/18 06:28:38;;;;;;;13.93;8.30;;;28.20;83.70;;;;;;5136385;27;20434;-66
2023/08/18 06:31:05;;;;;;;9.93;8.68;;;28.20;82.90;;;;;;5136916;27;20022;-65
2023/08/18 06:33:31;;;;;;;15.55;8.43;;;28.20;83.20;;;;;;5136034;27;20387;-66
2023/08/18 06:35:57;;;;;;;12.75;9.43;;;28.10;83.30;;;;;;5136114;27;20024;-66
2023/08/18 06:38:23;;;;;;;11.13;9.02;;;28.20;82.60;;;;;;5135589;27;20460;-66
2023/08/18 06:40:48;;;;;;;10.10;8.38;;;28.30;82.50;;;;;;5136060;27;20145;-66
2023/08/18 06:43:14;;;;;;;8.57;7.78;;;28.50;81.60;;;;;;5126836;27;20027;-66
2023/08/18 06:45:40;;;;;;;10.70;8.38;;;28.80;80.80;;;;;;5127547;27;20034;-66
2023/08/18 06:48:05;;;;;;;12.57;7.90;;;29.10;79.00;;;;;;5135915;27;20027;-67
2023/08/18 06:50:31;;;;;;;12.90;8.13;;;29.20;78.80;;;;;;5130415;27;20039;-69
2023/08/18 06:52:56;;;;;;;10.13;8.32;;;29.50;78.30;;;;;;5111151;27;20031;-69
2023/08/18 06:55:23;;;;;;;11.18;8.45;;;29.80;76.40;;;;;;5136007;27;20096;-70
2023/08/18 06:57:49;;;;;;;12.23;7.90;;;30.10;74.40;;;;;;5136200;27;20027;-68
2023/08/18 07:00:15;;;;;;;16.42;8.00;;;30.50;73.10;;;;;;5132807;27;20033;-68
2023/08/18 07:02:41;;;;;;;10.85;8.00;;;31.00;71.40;;;;;;5135192;27;20035;-69
2023/08/18 07:05:07;;;;;;;13.93;8.32;;;31.60;69.70;;;;;;5135716;27;20023;-69
2023/08/18 07:07:35;;;;;;;13.57;7.57;;;32.10;68.10;;;;;;5135585;27;20023;-69
2023/08/18 07:10:01;;;;;;;10.90;7.85;;;32.60;65.90;;;;;;5135476;27;20106;-70
2023/08/18 07:12:27;;;;;;;10.93;6.75;;;33.10;63.60;;;;;;5131140;27;20540;-69
2023/08/18 07:14:52;;;;;;;7.85;6.50;;;33.50;61.80;;;;;;5136682;27;20378;-69
2023/08/18 07:17:18;;;;;;;10.07;6.13;;;33.90;60.30;;;;;;5135932;27;20055;-69
2023/08/18 07:19:43;;;;;;;11.10;6.18;;;34.40;58.50;;;;;;5135509;27;20033;-69
2023/08/18 07:22:09;;;;;;;6.72;5.85;;;34.70;57.90;;;;;;5135737;27;20106;-69
2023/08/18 07:24:35;;;;;;;5.25;4.60;;;35.10;56.70;;;;;;5135055;27;20023;-70
2023/08/18 07:27:01;;;;;;;7.32;5.47;;;35.50;55.90;;;;;;5135767;27;20027;-70
2023/08/18 07:29:26;;;;;;;10.40;5.95;;;35.90;55.50;;;;;;5135097;27;20095;-69
2023/08/18 07:31:52;;;;;;;7.47;6.00;;;36.10;54.30;;;;;;5135905;27;20023;-68
2023/08/18 07:34:18;;;;;;;7.60;6.05;;;36.30;53.00;;;;;;5132055;27;20542;-69
2023/08/18 07:36:43;;;;;;;7.57;5.40;;;36.60;52.20;;;;;;5135545;27;20027;-69
2023/08/18 07:39:12;;;;;;;8.73;5.80;;;37.00;51.40;;;;;;5135548;27;20340;-69
2023/08/18 07:41:40;;;;;;;9.38;6.20;;;37.30;50.70;;;;;;5134860;27;20019;-69
2023/08/18 07:44:07;;;;;;;9.45;5.97;;;36.70;49.90;;;;;;5135362;27;20456;-69
2023/08/18 07:46:32;;;;;;;8.43;6.28;;;36.50;50.70;;;;;;5134972;27;20033;-69
2023/08/18 07:48:58;;;;;;;11.25;6.13;;;36.80;50.20;;;;;;5134832;27;20102;-69
2023/08/18 07:51:24;;;;;;;6.07;5.47;;;37.30;50.10;;;;;;5134949;27;20035;-72
2023/08/18 07:53:50;;;;;;;6.97;6.28;;;37.40;49.60;;;;;;5135254;27;20034;-69
2023/08/18 07:56:15;;;;;;;9.57;5.85;;;37.70;48.80;;;;;;5135306;27;20379;-69
2023/08/18 07:58:41;;;;;;;9.90;6.03;;;38.00;48.90;;;;;;5134144;27;20035;-70
2023/08/18 08:01:07;;;;;;;9.77;5.63;;;38.20;48.10;;;;;;5135118;27;20055;-70
2023/08/18 08:03:32;;;;;;;7.75;5.55;;;38.40;47.80;;;;;;5134302;27;20027;-70
2023/08/18 08:05:58;;;;;;;7.97;5.95;;;38.50;47.00;;;;;;5135006;27;20031;-70
2023/08/18 08:08:24;;;;;;;6.97;5.50;;;38.70;47.10;;;;;;5134975;27;20027;-70
2023/08/18 08:10:49;;;;;;;7.22;5.78;;;39.10;46.80;;;;;;5134602;27;20019;-70
2023/08/18 08:13:15;;;;;;;11.02;6.65;;;39.30;46.60;;;;;;5134999;27;20027;-70
2023/08/18 08:15:45;;;;;;;8.25;6.30;;;38.90;45.20;;;;;;5116096;27;20519;-70
2023/08/18 08:18:15;;;;;;;;;;;39.00;46.10;;;;;;5135360;27;20355;-70
2023/08/18 08:20:42;;;;;;;10.20;6.72;;;38.50;45.70;;;;;;5134387;27;20358;-69
2023/08/18 08:23:08;;;;;;;7.97;7.18;;;37.50;46.90;;;;;;5134463;27;20114;-70
2023/08/18 08:25:34;;;;;;;15.73;7.72;;;36.50;47.90;;;;;;5134334;27;20547;-70
2023/08/18 08:28:01;;;;;;;9.27;7.30;;;35.60;49.60;;;;;;5116214;27;20068;-70
2023/08/18 08:30:28;;;;;;;8.60;6.53;;;35.20;51.20;;;;;;5134200;27;20037;-71
2023/08/18 08:32:54;;;;;;;6.85;6.15;;;35.40;52.80;;;;;;5134530;27;20035;-69
2023/08/18 08:35:20;;;;;;;9.40;6.63;;;35.60;52.70;;;;;;5134448;27;20080;-69
2023/08/18 08:37:46;;;;;;;12.10;7.80;;;35.70;52.20;;;;;;5134075;27;20027;-70
2023/08/18 08:40:19;;;;;;;10.43;6.80;;;35.70;50.90;;;;;;5134055;27;20356;-69
2023/08/18 08:42:47;;;;;;;10.15;7.65;;;35.50;52.40;;;;;;5133846;27;20045;-70
2023/08/18 08:45:13;;;;;;;9.35;7.28;;;35.10;51.70;;;;;;5134364;27;20042;-70
2023/08/18 08:47:42;;;;;;;13.25;7.78;;;34.70;51.90;;;;;;5133564;27;20456;-69
2023/08/18 08:50:08;;;;;;;12.75;7.13;;;34.60;52.30;;;;;;5134365;27;20046;-70
2023/08/18 08:52:39;;;;;;;8.60;7.28;;;34.80;52.10;;;;;;5133832;27;20442;-70
2023/08/18 08:55:06;;;;;;;8.35;6.72;;;34.60;52.60;;;;;;5134711;27;20023;-69
2023/08/18 08:57:33;;;;;;;9.65;7.25;;;34.50;53.30;;;;;;5133684;27;20058;-70
2023/08/18 09:00:00;;;;;;;10.45;6.63;;;34.50;53.20;;;;;;5133450;27;20034;-70
2023/08/18 09:02:26;;;;;;;10.38;6.45;;;34.60;52.90;;;;;;5133924;27;20118;-70
2023/08/18 09:04:52;;;;;;;10.75;8.00;;;34.20;53.60;;;;;;5133616;27;20481;-69
2023/08/18 09:07:17;;;;;;;8.40;6.57;;;34.10;53.40;;;;;;5133675;27;20047;-68
2023/08/18 09:09:43;;;;;;;8.20;6.10;;;34.20;53.70;;;;;;5132681;27;20023;-69
2023/08/18 09:12:10;;;;;;;10.48;5.88;;;34.20;54.00;;;;;;5133947;27;20024;-70
2023/08/18 09:14:38;;;;;;;7.43;5.18;;;34.30;53.90;;;;;;5133591;27;20019;-69
2023/08/18 09:17:04;;;;;;;7.72;6.85;;;34.50;53.80;;;;;;5133698;27;20031;-68
2023/08/18 09:19:30;;;;;;;11.45;6.85;;;33.90;53.10;;;;;;5133817;27;20030;-68
2023/08/18 09:22:00;;;;;;;9.38;6.50;;;33.60;54.20;;;;;;5133412;27;20528;-69
2023/08/18 09:24:29;;;;;;;12.55;7.35;;;33.50;54.70;;;;;;5133946;27;20035;-69
2023/08/18 09:27:04;;;;;;;7.07;6.38;;;33.30;54.90;;;;;;5133594;28;20031;-68
2023/08/18 09:29:30;;;;;;;6.82;6.13;;;32.90;55.40;;;;;;5133461;28;20072;-69
2023/08/18 09:31:57;;;;;;;8.38;6.40;;;32.60;55.90;;;;;;5133769;28;20026;-69
2023/08/18 09:34:23;;;;;;;9.43;6.28;;;32.60;56.60;;;;;;5133775;28;20031;-69
2023/08/18 09:36:56;;;;;;;8.55;6.38;;;32.60;56.80;;;;;;5131120;28;20031;-69
2023/08/18 09:39:22;;;;;;;8.07;6.35;;;32.50;56.30;;;;;;5133710;28;20460;-69
2023/08/18 09:41:51;;;;;;;9.95;6.40;;;32.20;57.00;;;;;;5132965;28;20388;-69
2023/08/18 09:44:18;;;;;;;8.98;5.82;;;32.10;57.30;;;;;;5133570;28;20117;-69
2023/08/18 09:46:58;;;;;;;7.95;6.88;;;32.10;58.40;;;;;;5133235;28;20421;-69
2023/08/18 09:49:27;;;;;;;11.13;7.07;;;32.00;57.80;;;;;;5133772;27;20486;-69
2023/08/18 09:52:04;;;;;;;7.22;6.53;;;32.10;58.50;;;;;;5132909;28;20226;-69
2023/08/18 09:54:34;;;;;;;8.13;6.20;;;32.00;58.50;;;;;;5133289;28;20059;-69
2023/08/18 09:57:05;;;;;;;;;;;31.90;58.00;;;;;;5133410;28;20119;-69
2023/08/18 09:59:55;;;;;;;7.88;5.30;;;31.80;58.00;;;;;;5133096;28;19907;-69
2023/08/18 10:02:26;;;;;;;13.05;6.28;;;31.80;58.30;;;;;;5133121;28;20042;-69
2023/08/18 10:04:53;;;;;;;7.18;5.53;;;31.70;58.40;;;;;;5132661;28;20503;-69
2023/08/18 10:07:20;;;;;;;9.45;5.78;;;31.70;58.90;;;;;;5133083;28;20038;-69
2023/08/18 10:09:47;;;;;;;17.23;6.55;;;31.60;58.80;;;;;;5132831;28;20029;-69
2023/08/18 10:12:13;;;;;;;15.75;5.97;;;31.60;59.60;;;;;;5133034;28;20102;-69
2023/08/18 10:14:39;;;;;;;7.28;6.47;;;31.50;59.30;;;;;;5132766;28;20030;-70
2023/08/18 10:17:05;;;;;;;9.77;6.13;;;31.40;60.00;;;;;;5133178;28;20027;-69
2023/08/18 10:19:51;;;;;;;11.82;5.90;;;31.70;60.20;;;;;;5132994;28;20031;-69
2023/08/18 10:22:18;;;;;;;8.65;5.50;;;31.80;59.30;;;;;;5136790;27;20023;-69
2023/08/18 10:24:48;;;;;;;8.43;6.00;;;32.00;58.60;;;;;;5136529;27;20383;-69
2023/08/18 10:27:38;;;;;;;10.93;5.43;;;32.00;58.90;;;;;;5136491;27;20383;-69
2023/08/18 10:30:07;;;;;;;12.63;5.78;;;32.00;57.90;;;;;;5124304;27;20042;-69
2023/08/18 10:32:33;;;;;;;7.68;5.70;;;31.90;57.10;;;;;;5136817;27;20128;-69
2023/08/18 10:35:19;;;;;;;8.52;6.13;;;31.50;57.50;;;;;;5136236;27;20030;-69
2023/08/18 10:37:47;;;;;;;8.23;6.05;;;31.10;58.60;;;;;;5135943;27;20024;-70
2023/08/18 10:40:25;;;;;;;10.82;6.18;;;31.10;58.50;;;;;;5101245;27;20054;-69
2023/08/18 10:42:53;;;;;;;6.68;5.72;;;31.00;59.20;;;;;;5136114;27;20043;-70
2023/08/18 10:45:29;;;;;;;8.50;5.93;;;31.10;60.00;;;;;;5136420;27;20027;-69
2023/08/18 10:48:03;;;;;;;8.75;6.32;;;31.10;59.60;;;;;;5136073;27;20020;-69
2023/08/18 10:50:30;;;;;;;6.93;5.80;;;31.10;59.40;;;;;;5136454;27;20043;-69
2023/08/18 10:52:57;;;;;;;7.72;6.05;;;31.00;59.90;;;;;;5136026;27;20084;-69
2023/08/18 10:55:24;;;;;;;6.93;6.22;;;30.90;60.10;;;;;;5135941;27;20030;-69
2023/08/18 10:57:50;;;;;;;6.00;5.25;;;30.80;61.00;;;;;;5117433;27;20416;-69
2023/08/18 11:00:18;;;;;;;8.50;5.90;;;30.80;61.10;;;;;;5136381;27;20023;-69
2023/08/18 11:02:49;;;;;;;6.85;5.45;;;30.80;61.60;;;;;;5135712;27;20070;-69
2023/08/18 11:05:17;;;;;;;8.23;5.10;;;30.90;61.10;;;;;;5136038;27;20450;-71
2023/08/18 11:07:43;;;;;;;6.43;5.60;;;31.00;60.70;;;;;;5135874;27;20110;-69
2023/08/18 11:10:22;;;;;;;8.85;6.07;;;31.00;60.70;;;;;;5136105;27;20114;-69
2023/08/18 11:12:49;;;;;;;7.10;6.18;;;30.90;59.40;;;;;;5135658;27;20080;-69
2023/08/18 11:15:18;;;;;;;6.00;5.18;;;30.80;59.70;;;;;;5136494;27;20088;-69
2023/08/18 11:17:44;;;;;;;6.13;5.55;;;30.90;59.50;;;;;;5135554;27;20023;-70
2023/08/18 11:20:13;;;;;;;6.72;4.97;;;31.00;59.80;;;;;;5135888;27;20106;-69
2023/08/18 11:22:42;;;;;;;7.78;5.32;;;31.10;59.40;;;;;;5135896;27;20047;-70
2023/08/18 11:25:12;;;;;;;8.02;5.22;;;31.00;59.10;;;;;;5133619;27;20015;-69
2023/08/18 11:27:40;;;;;;;6.72;5.63;;;31.00;58.90;;;;;;5135531;27;20026;-69
2023/08/18 11:30:10;;;;;;;6.50;5.60;;;30.80;57.70;;;;;;5135050;27;20542;-70
2023/08/18 11:32:40;;;;;;;7.05;5.90;;;30.60;58.50;;;;;;5112554;27;20442;-69
2023/08/18 11:35:07;;;;;;;6.47;5.73;;;30.60;58.90;;;;;;5136062;27;20076;-70
2023/08/18 11:37:39;;;;;;;5.88;5.10;;;30.50;58.50;;;;;;5135375;27;20171;-69
2023/08/18 11:40:09;;;;;;;8.48;5.95;;;30.50;58.30;;;;;;5134826;27;20023;-69
2023/08/18 11:42:34;;;;;;;8.03;6.27;;;30.50;58.90;;;;;;5135221;27;20186;-65
2023/08/18 11:45:00;;;;;;;8.02;6.55;;;30.50;58.50;;;;;;5134995;27;20140;-65
2023/08/18 11:47:25;;;;;;;7.43;6.22;;;30.30;58.80;;;;;;5116593;27;20576;-71
2023/08/18 11:49:51;;;;;;;8.68;6.07;;;30.20;59.20;;;;;;5134725;27;20102;-71
2023/08/18 11:52:18;;;;;;;6.78;6.13;;;30.20;59.30;;;;;;5135100;27;20025;-71
2023/08/18 11:54:45;;;;;;;9.05;6.03;;;30.20;60.80;;;;;;5134449;27;20387;-72
2023/08/18 11:57:14;;;;;;;8.13;5.88;;;30.20;60.80;;;;;;5134796;27;20031;-72
2023/08/18 11:59:50;;;;;;;7.55;5.57;;;30.10;60.50;;;;;;5134514;27;20072;-72
2023/08/18 12:02:21;;;;;;;6.50;5.78;;;30.00;60.50;;;;;;5134286;27;20030;-72
2023/08/18 12:04:47;;;;;;;10.48;5.80;;;30.10;61.30;;;;;;5132069;27;20094;-72
2023/08/18 12:07:13;;;;;;;6.63;5.60;;;30.10;61.50;;;;;;5134405;27;20110;-72
2023/08/18 12:09:38;;;;;;;8.05;5.35;;;30.10;61.00;;;;;;5134339;27;20024;-72
2023/08/18 12:12:13;;;;;;;7.57;5.95;;;30.00;60.30;;;;;;5133492;27;20023;-72
2023/08/18 12:14:39;;;;;;;9.80;5.80;;;30.00;60.60;;;;;;5134058;27;20106;-72
2023/08/18 12:17:04;;;;;;;8.60;7.07;;;30.00;60.60;;;;;;5133749;27;20106;-72
2023/08/18 12:19:31;;;;;;;12.88;7.57;;;29.90;63.10;;;;;;5134722;27;20035;-72
2023/08/18 12:21:56;;;;;;;7.95;7.03;;;29.80;63.60;;;;;;5133787;27;20523;-72
2023/08/18 12:24:22;;;;;;;8.88;6.63;;;29.80;63.20;;;;;;5133844;27;20118;-72
2023/08/18 12:26:48;;;;;;;10.90;7.65;;;29.80;63.50;;;;;;5133542;27;20437;-73
2023/08/18 12:29:14;;;;;;;10.35;7.82;;;29.80;64.20;;;;;;5115516;27;20051;-72
2023/08/18 12:31:39;;;;;;;9.90;6.45;;;29.70;66.20;;;;;;5134074;27;20058;-72
2023/08/18 12:34:05;;;;;;;9.98;7.03;;;29.70;65.10;;;;;;5133465;27;20492;-72
2023/08/18 12:36:33;;;;;;;9.15;6.40;;;29.70;64.90;;;;;;5133978;27;20031;-71
2023/08/18 12:38:58;;;;;;;9.07;7.43;;;29.70;64.70;;;;;;5133353;27;20039;-72